sensor_id;sensor_type;location;lat;lon;timestamp;P1;durP1;ratioP1;P2;durP2;ratioP2
10725;SDS011;5414;59.782;16.378;2022-08-19T00:01:45;25.77;;;19.83;;
10725;SDS011;5414;59.782;16.378;2022-08-19T00:04:13;23.63;;;19.37;;
10725;SDS011;5414;59.782;16.378;2022-08-19T00:06:46;22.20;;;19.90;;
10725;SDS011;5414;59.782;16.378;2022-08-19T00:09:13;22.20;;;19.97;;
10725;SDS011;5414;59.782;16.378;2022-08-19T00:11:40;22.83;;;19.50;;
10725;SDS011;5414;59.782;16.378;2022-08-19T00:14:06;23.10;;;19.77;;
10725;SDS011;5414;59.782;16.378;2022-08-19T00:16:34;21.97;;;19.37;;
10725;SDS011;5414;59.782;16.378;2022-08-19T00:19:01;23.87;;;21.17;;
10725;SDS011;5414;59.782;16.378;2022-08-19T00:21:27;27.20;;;20.20;;
10725;SDS011;5414;59.782;16.378;2022-08-19T00:23:53;27.87;;;20.53;;
10725;SDS011;5414;59.782;16.378;2022-08-19T00:26:24;22.23;;;19.93;;
10725;SDS011;5414;59.782;16.378;2022-08-19T00:28:50;29.23;;;21.57;;
10725;SDS011;5414;59.782;16.378;2022-08-19T00:31:16;30.80;;;22.00;;
10725;SDS011;5414;59.782;16.378;2022-08-19T00:33:42;25.80;;;20.47;;
10725;SDS011;5414;59.782;16.378;2022-08-19T00:36:09;26.53;;;20.73;;
10725;SDS011;5414;59.782;16.378;2022-08-19T00:38:36;24.23;;;20.17;;
10725;SDS011;5414;59.782;16.378;2022-08-19T00:41:02;24.63;;;20.90;;
10725;SDS011;5414;59.782;16.378;2022-08-19T00:43:29;26.87;;;21.30;;
10725;SDS011;5414;59.782;16.378;2022-08-19T00:45:55;23.53;;;20.60;;
10725;SDS011;5414;59.782;16.378;2022-08-19T00:48:21;26.90;;;21.70;;
10725;SDS011;5414;59.782;16.378;2022-08-19T00:50:48;27.30;;;20.90;;
10725;SDS011;5414;59.782;16.378;2022-08-19T00:53:15;21.90;;;19.70;;
10725;SDS011;5414;59.782;16.378;2022-08-19T00:55:44;25.97;;;20.37;;
10725;SDS011;5414;59.782;16.378;2022-08-19T00:58:12;28.20;;;20.90;;
10725;SDS011;5414;59.782;16.378;2022-08-19T01:00:39;26.73;;;20.60;;
10725;SDS011;5414;59.782;16.378;2022-08-19T01:03:10;26.83;;;20.17;;
10725;SDS011;5414;59.782;16.378;2022-08-19T01:05:36;21.83;;;19.53;;
10725;SDS011;5414;59.782;16.378;2022-08-19T01:08:03;33.30;;;20.80;;
10725;SDS011;5414;59.782;16.378;2022-08-19T01:10:31;22.83;;;20.40;;
10725;SDS011;5414;59.782;16.378;2022-08-19T01:12:58;22.77;;;19.87;;
10725;SDS011;5414;59.782;16.378;2022-08-19T01:15:26;25.60;;;20.13;;
10725;SDS011;5414;59.782;16.378;2022-08-19T01:17:54;27.23;;;21.67;;
10725;SDS011;5414;59.782;16.378;2022-08-19T01:20:22;24.57;;;19.67;;
10725;SDS011;5414;59.782;16.378;2022-08-19T01:22:49;26.77;;;20.77;;
10725;SDS011;5414;59.782;16.378;2022-08-19T01:25:16;24.87;;;20.93;;
10725;SDS011;5414;59.782;16.378;2022-08-19T01:27:45;23.33;;;20.10;;
10725;SDS011;5414;59.782;16.378;2022-08-19T01:30:13;26.00;;;20.67;;
10725;SDS011;5414;59.782;16.378;2022-08-19T01:32:40;27.63;;;21.20;;
10725;SDS011;5414;59.782;16.378;2022-08-19T01:35:06;26.37;;;20.40;;
10725;SDS011;5414;59.782;16.378;2022-08-19T01:37:46;21.43;;;19.27;;
10725;SDS011;5414;59.782;16.378;2022-08-19T01:40:13;26.60;;;20.13;;
10725;SDS011;5414;59.782;16.378;2022-08-19T01:42:40;22.97;;;20.40;;
10725;SDS011;5414;59.782;16.378;2022-08-19T01:45:06;25.73;;;20.23;;
10725;SDS011;5414;59.782;16.378;2022-08-19T01:47:34;24.53;;;20.57;;
10725;SDS011;5414;59.782;16.378;2022-08-19T01:50:00;23.73;;;21.23;;
10725;SDS011;5414;59.782;16.378;2022-08-19T01:52:27;26.50;;;19.87;;
10725;SDS011;5414;59.782;16.378;2022-08-19T01:54:53;22.67;;;20.23;;
10725;SDS011;5414;59.782;16.378;2022-08-19T01:57:19;25.10;;;20.77;;
10725;SDS011;5414;59.782;16.378;2022-08-19T01:59:45;21.83;;;19.57;;
10725;SDS011;5414;59.782;16.378;2022-08-19T02:02:11;21.33;;;19.20;;
10725;SDS011;5414;59.782;16.378;2022-08-19T02:04:38;21.60;;;19.30;;
10725;SDS011;5414;59.782;16.378;2022-08-19T02:07:05;22.60;;;20.37;;
10725;SDS011;5414;59.782;16.378;2022-08-19T02:09:33;21.57;;;19.50;;
10725;SDS011;5414;59.782;16.378;2022-08-19T02:12:00;21.93;;;19.60;;
10725;SDS011;5414;59.782;16.378;2022-08-19T02:14:26;21.17;;;18.97;;
10725;SDS011;5414;59.782;16.378;2022-08-19T02:16:52;20.00;;;18.10;;
10725;SDS011;5414;59.782;16.378;2022-08-19T02:19:18;19.30;;;17.33;;
10725;SDS011;5414;59.782;16.378;2022-08-19T02:21:44;19.63;;;17.73;;
10725;SDS011;5414;59.782;16.378;2022-08-19T02:24:11;20.23;;;18.23;;
10725;SDS011;5414;59.782;16.378;2022-08-19T02:26:37;19.37;;;17.47;;
10725;SDS011;5414;59.782;16.378;2022-08-19T02:29:03;20.77;;;18.67;;
10725;SDS011;5414;59.782;16.378;2022-08-19T02:31:29;20.37;;;18.17;;
10725;SDS011;5414;59.782;16.378;2022-08-19T02:33:55;21.83;;;19.63;;
10725;SDS011;5414;59.782;16.378;2022-08-19T02:36:22;20.90;;;18.80;;
10725;SDS011;5414;59.782;16.378;2022-08-19T02:38:48;21.47;;;19.37;;
10725;SDS011;5414;59.782;16.378;2022-08-19T02:41:18;20.37;;;18.43;;
10725;SDS011;5414;59.782;16.378;2022-08-19T02:43:45;18.47;;;16.73;;
10725;SDS011;5414;59.782;16.378;2022-08-19T02:46:19;20.03;;;17.93;;
10725;SDS011;5414;59.782;16.378;2022-08-19T02:48:49;19.80;;;17.90;;
10725;SDS011;5414;59.782;16.378;2022-08-19T02:51:19;19.27;;;17.37;;
10725;SDS011;5414;59.782;16.378;2022-08-19T02:53:46;18.13;;;16.13;;
10725;SDS011;5414;59.782;16.378;2022-08-19T02:56:12;17.30;;;15.70;;
10725;SDS011;5414;59.782;16.378;2022-08-19T02:58:38;18.23;;;16.53;;
10725;SDS011;5414;59.782;16.378;2022-08-19T03:01:04;17.90;;;16.17;;
10725;SDS011;5414;59.782;16.378;2022-08-19T03:03:30;18.67;;;16.90;;
10725;SDS011;5414;59.782;16.378;2022-08-19T03:06:30;19.47;;;17.57;;
10725;SDS011;5414;59.782;16.378;2022-08-19T03:08:49;18.90;;;17.00;;
10725;SDS011;5414;59.782;16.378;2022-08-19T03:11:20;18.67;;;16.87;;
10725;SDS011;5414;59.782;16.378;2022-08-19T03:13:46;19.13;;;17.17;;
10725;SDS011;5414;59.782;16.378;2022-08-19T03:16:14;18.10;;;16.37;;
10725;SDS011;5414;59.782;16.378;2022-08-19T03:18:40;17.37;;;15.60;;
10725;SDS011;5414;59.782;16.378;2022-08-19T03:21:06;18.57;;;16.77;;
10725;SDS011;5414;59.782;16.378;2022-08-19T03:23:32;19.77;;;17.80;;
10725;SDS011;5414;59.782;16.378;2022-08-19T03:25:58;18.17;;;16.37;;
10725;SDS011;5414;59.782;16.378;2022-08-19T03:28:24;19.50;;;17.53;;
10725;SDS011;5414;59.782;16.378;2022-08-19T03:31:23;18.93;;;16.93;;
10725;SDS011;5414;59.782;16.378;2022-08-19T03:33:42;19.20;;;17.20;;
10725;SDS011;5414;59.782;16.378;2022-08-19T03:36:13;19.73;;;17.63;;
10725;SDS011;5414;59.782;16.378;2022-08-19T03:38:41;18.83;;;17.00;;
10725;SDS011;5414;59.782;16.378;2022-08-19T03:41:09;18.13;;;16.33;;
10725;SDS011;5414;59.782;16.378;2022-08-19T03:43:38;17.73;;;16.00;;
10725;SDS011;5414;59.782;16.378;2022-08-19T03:46:10;20.40;;;18.27;;
10725;SDS011;5414;59.782;16.378;2022-08-19T03:48:38;19.27;;;17.27;;
10725;SDS011;5414;59.782;16.378;2022-08-19T03:51:05;19.50;;;17.50;;
10725;SDS011;5414;59.782;16.378;2022-08-19T03:53:32;21.63;;;18.40;;
10725;SDS011;5414;59.782;16.378;2022-08-19T03:55:59;20.70;;;18.50;;
10725;SDS011;5414;59.782;16.378;2022-08-19T03:58:26;22.93;;;19.40;;
10725;SDS011;5414;59.782;16.378;2022-08-19T04:00:54;21.00;;;18.73;;
10725;SDS011;5414;59.782;16.378;2022-08-19T04:03:20;20.33;;;18.23;;
10725;SDS011;5414;59.782;16.378;2022-08-19T04:05:46;24.00;;;18.97;;
10725;SDS011;5414;59.782;16.378;2022-08-19T04:08:14;21.93;;;18.87;;
10725;SDS011;5414;59.782;16.378;2022-08-19T04:10:43;20.37;;;18.27;;
10725;SDS011;5414;59.782;16.378;2022-08-19T04:13:11;20.03;;;17.93;;
10725;SDS011;5414;59.782;16.378;2022-08-19T04:15:41;20.13;;;18.07;;
10725;SDS011;5414;59.782;16.378;2022-08-19T04:18:08;20.13;;;17.13;;
10725;SDS011;5414;59.782;16.378;2022-08-19T04:20:38;21.30;;;18.73;;
10725;SDS011;5414;59.782;16.378;2022-08-19T04:23:04;23.57;;;20.10;;
10725;SDS011;5414;59.782;16.378;2022-08-19T04:25:35;25.23;;;20.67;;
10725;SDS011;5414;59.782;16.378;2022-08-19T04:28:01;22.27;;;19.17;;
10725;SDS011;5414;59.782;16.378;2022-08-19T04:30:27;25.60;;;20.93;;
10725;SDS011;5414;59.782;16.378;2022-08-19T04:32:53;23.47;;;20.90;;
10725;SDS011;5414;59.782;16.378;2022-08-19T04:35:19;24.80;;;21.03;;
10725;SDS011;5414;59.782;16.378;2022-08-19T04:37:45;27.20;;;21.93;;
10725;SDS011;5414;59.782;16.378;2022-08-19T04:40:11;26.67;;;21.43;;
10725;SDS011;5414;59.782;16.378;2022-08-19T04:42:56;26.23;;;21.37;;
10725;SDS011;5414;59.782;16.378;2022-08-19T04:45:22;28.83;;;22.27;;
10725;SDS011;5414;59.782;16.378;2022-08-19T04:47:48;27.00;;;21.37;;
10725;SDS011;5414;59.782;16.378;2022-08-19T04:50:14;28.33;;;21.20;;
10725;SDS011;5414;59.782;16.378;2022-08-19T04:52:40;30.03;;;23.97;;
10725;SDS011;5414;59.782;16.378;2022-08-19T04:55:10;29.63;;;23.73;;
10725;SDS011;5414;59.782;16.378;2022-08-19T04:57:36;31.83;;;24.63;;
10725;SDS011;5414;59.782;16.378;2022-08-19T05:00:05;31.17;;;25.93;;
10725;SDS011;5414;59.782;16.378;2022-08-19T05:02:31;31.67;;;25.37;;
10725;SDS011;5414;59.782;16.378;2022-08-19T05:04:58;28.17;;;22.80;;
10725;SDS011;5414;59.782;16.378;2022-08-19T05:07:27;32.33;;;25.20;;
10725;SDS011;5414;59.782;16.378;2022-08-19T05:09:53;28.13;;;23.17;;
10725;SDS011;5414;59.782;16.378;2022-08-19T05:12:21;32.73;;;26.67;;
10725;SDS011;5414;59.782;16.378;2022-08-19T05:14:47;31.87;;;25.63;;
10725;SDS011;5414;59.782;16.378;2022-08-19T05:17:14;35.47;;;27.50;;
10725;SDS011;5414;59.782;16.378;2022-08-19T05:19:40;33.73;;;26.87;;
10725;SDS011;5414;59.782;16.378;2022-08-19T05:22:25;35.20;;;26.80;;
10725;SDS011;5414;59.782;16.378;2022-08-19T05:24:58;33.90;;;27.63;;
10725;SDS011;5414;59.782;16.378;2022-08-19T05:27:25;35.33;;;28.53;;
10725;SDS011;5414;59.782;16.378;2022-08-19T05:29:52;32.47;;;27.63;;
10725;SDS011;5414;59.782;16.378;2022-08-19T05:32:18;34.27;;;28.33;;
10725;SDS011;5414;59.782;16.378;2022-08-19T05:34:44;33.03;;;28.53;;
10725;SDS011;5414;59.782;16.378;2022-08-19T05:37:10;34.03;;;28.43;;
10725;SDS011;5414;59.782;16.378;2022-08-19T05:39:37;34.50;;;29.23;;
10725;SDS011;5414;59.782;16.378;2022-08-19T05:42:05;34.73;;;30.17;;
10725;SDS011;5414;59.782;16.378;2022-08-19T05:44:33;36.33;;;29.43;;
10725;SDS011;5414;59.782;16.378;2022-08-19T05:47:00;34.47;;;30.07;;
10725;SDS011;5414;59.782;16.378;2022-08-19T05:49:27;34.93;;;29.17;;
10725;SDS011;5414;59.782;16.378;2022-08-19T05:51:53;34.77;;;30.40;;
10725;SDS011;5414;59.782;16.378;2022-08-19T05:54:20;33.63;;;30.03;;
10725;SDS011;5414;59.782;16.378;2022-08-19T05:56:48;31.43;;;27.93;;
10725;SDS011;5414;59.782;16.378;2022-08-19T05:59:15;31.77;;;28.47;;
10725;SDS011;5414;59.782;16.378;2022-08-19T06:01:43;32.63;;;29.23;;
10725;SDS011;5414;59.782;16.378;2022-08-19T06:04:10;33.73;;;30.13;;
10725;SDS011;5414;59.782;16.378;2022-08-19T06:06:36;33.40;;;29.80;;
10725;SDS011;5414;59.782;16.378;2022-08-19T06:09:03;34.43;;;30.83;;
10725;SDS011;5414;59.782;16.378;2022-08-19T06:14:07;33.67;;;30.10;;
10725;SDS011;5414;59.782;16.378;2022-08-19T06:16:34;34.93;;;31.17;;
10725;SDS011;5414;59.782;16.378;2022-08-19T06:19:00;31.67;;;28.47;;
10725;SDS011;5414;59.782;16.378;2022-08-19T06:21:27;34.43;;;30.87;;
10725;SDS011;5414;59.782;16.378;2022-08-19T06:23:54;32.10;;;28.77;;
10725;SDS011;5414;59.782;16.378;2022-08-19T06:26:21;33.37;;;29.67;;
10725;SDS011;5414;59.782;16.378;2022-08-19T06:28:48;32.33;;;29.03;;
10725;SDS011;5414;59.782;16.378;2022-08-19T06:31:19;33.93;;;30.50;;
10725;SDS011;5414;59.782;16.378;2022-08-19T06:33:46;32.20;;;28.97;;
10725;SDS011;5414;59.782;16.378;2022-08-19T06:36:32;33.33;;;29.83;;
10725;SDS011;5414;59.782;16.378;2022-08-19T06:39:02;31.43;;;28.33;;
10725;SDS011;5414;59.782;16.378;2022-08-19T06:41:29;32.93;;;29.33;;
10725;SDS011;5414;59.782;16.378;2022-08-19T06:43:55;32.37;;;29.03;;
10725;SDS011;5414;59.782;16.378;2022-08-19T06:46:22;31.47;;;28.37;;
10725;SDS011;5414;59.782;16.378;2022-08-19T06:48:48;33.63;;;30.20;;
10725;SDS011;5414;59.782;16.378;2022-08-19T06:51:15;33.53;;;28.23;;
10725;SDS011;5414;59.782;16.378;2022-08-19T06:53:48;30.93;;;27.77;;
10725;SDS011;5414;59.782;16.378;2022-08-19T06:56:14;30.23;;;27.43;;
10725;SDS011;5414;59.782;16.378;2022-08-19T06:58:41;30.20;;;27.17;;
10725;SDS011;5414;59.782;16.378;2022-08-19T07:01:07;28.83;;;25.93;;
10725;SDS011;5414;59.782;16.378;2022-08-19T07:03:34;27.93;;;25.37;;
10725;SDS011;5414;59.782;16.378;2022-08-19T07:06:04;27.77;;;24.97;;
10725;SDS011;5414;59.782;16.378;2022-08-19T07:08:32;27.37;;;24.77;;
10725;SDS011;5414;59.782;16.378;2022-08-19T07:10:59;24.67;;;22.37;;
10725;SDS011;5414;59.782;16.378;2022-08-19T07:13:25;26.13;;;23.33;;
10725;SDS011;5414;59.782;16.378;2022-08-19T07:15:51;26.93;;;24.40;;
10725;SDS011;5414;59.782;16.378;2022-08-19T07:18:18;26.00;;;23.53;;
10725;SDS011;5414;59.782;16.378;2022-08-19T07:20:45;27.30;;;24.73;;
10725;SDS011;5414;59.782;16.378;2022-08-19T07:23:13;28.00;;;25.20;;
10725;SDS011;5414;59.782;16.378;2022-08-19T07:25:39;28.30;;;25.70;;
10725;SDS011;5414;59.782;16.378;2022-08-19T07:28:05;27.60;;;24.70;;
10725;SDS011;5414;59.782;16.378;2022-08-19T07:30:36;27.83;;;25.13;;
10725;SDS011;5414;59.782;16.378;2022-08-19T07:33:02;27.47;;;24.97;;
10725;SDS011;5414;59.782;16.378;2022-08-19T07:35:29;28.17;;;25.37;;
10725;SDS011;5414;59.782;16.378;2022-08-19T07:37:57;27.83;;;25.10;;
10725;SDS011;5414;59.782;16.378;2022-08-19T07:40:23;29.63;;;26.73;;
10725;SDS011;5414;59.782;16.378;2022-08-19T07:42:49;27.57;;;24.87;;
10725;SDS011;5414;59.782;16.378;2022-08-19T07:45:15;28.77;;;25.70;;
10725;SDS011;5414;59.782;16.378;2022-08-19T07:47:41;29.00;;;26.33;;
10725;SDS011;5414;59.782;16.378;2022-08-19T07:50:08;27.93;;;25.33;;
10725;SDS011;5414;59.782;16.378;2022-08-19T07:52:35;28.33;;;25.73;;
10725;SDS011;5414;59.782;16.378;2022-08-19T07:55:04;25.20;;;22.80;;
10725;SDS011;5414;59.782;16.378;2022-08-19T07:57:30;28.97;;;25.90;;
10725;SDS011;5414;59.782;16.378;2022-08-19T07:59:56;25.53;;;22.93;;
10725;SDS011;5414;59.782;16.378;2022-08-19T08:02:22;24.27;;;22.03;;
10725;SDS011;5414;59.782;16.378;2022-08-19T08:04:48;24.80;;;22.30;;
10725;SDS011;5414;59.782;16.378;2022-08-19T08:07:32;25.93;;;23.50;;
10725;SDS011;5414;59.782;16.378;2022-08-19T08:10:17;23.60;;;21.20;;
10725;SDS011;5414;59.782;16.378;2022-08-19T08:12:43;24.50;;;22.30;;
10725;SDS011;5414;59.782;16.378;2022-08-19T08:15:11;24.13;;;21.87;;
10725;SDS011;5414;59.782;16.378;2022-08-19T08:17:41;23.07;;;21.00;;
10725;SDS011;5414;59.782;16.378;2022-08-19T08:20:08;22.97;;;20.83;;
10725;SDS011;5414;59.782;16.378;2022-08-19T08:22:35;22.37;;;20.27;;
10725;SDS011;5414;59.782;16.378;2022-08-19T08:25:21;21.83;;;20.00;;
10725;SDS011;5414;59.782;16.378;2022-08-19T08:27:47;21.87;;;19.90;;
10725;SDS011;5414;59.782;16.378;2022-08-19T08:30:21;22.40;;;20.40;;
10725;SDS011;5414;59.782;16.378;2022-08-19T08:32:48;22.70;;;20.60;;
10725;SDS011;5414;59.782;16.378;2022-08-19T08:35:15;22.10;;;20.20;;
10725;SDS011;5414;59.782;16.378;2022-08-19T08:37:42;22.47;;;20.40;;
10725;SDS011;5414;59.782;16.378;2022-08-19T08:42:51;21.67;;;19.67;;
10725;SDS011;5414;59.782;16.378;2022-08-19T08:45:23;20.30;;;18.47;;
10725;SDS011;5414;59.782;16.378;2022-08-19T08:47:51;20.63;;;18.80;;
10725;SDS011;5414;59.782;16.378;2022-08-19T08:50:20;20.30;;;18.40;;
10725;SDS011;5414;59.782;16.378;2022-08-19T08:52:48;20.47;;;18.67;;
10725;SDS011;5414;59.782;16.378;2022-08-19T08:55:19;21.33;;;19.47;;
10725;SDS011;5414;59.782;16.378;2022-08-19T09:00:34;16.77;;;15.27;;
10725;SDS011;5414;59.782;16.378;2022-08-19T09:03:02;16.83;;;15.27;;
10725;SDS011;5414;59.782;16.378;2022-08-19T09:05:36;16.23;;;14.83;;
10725;SDS011;5414;59.782;16.378;2022-08-19T09:08:13;17.50;;;15.83;;
10725;SDS011;5414;59.782;16.378;2022-08-19T09:10:43;17.00;;;15.40;;
10725;SDS011;5414;59.782;16.378;2022-08-19T09:15:51;15.60;;;14.40;;
10725;SDS011;5414;59.782;16.378;2022-08-19T09:18:18;16.00;;;14.65;;
10725;SDS011;5414;59.782;16.378;2022-08-19T09:20:45;16.73;;;14.85;;
10725;SDS011;5414;59.782;16.378;2022-08-19T09:23:14;16.52;;;15.07;;
10725;SDS011;5414;59.782;16.378;2022-08-19T09:25:40;17.52;;;15.77;;
10725;SDS011;5414;59.782;16.378;2022-08-19T09:28:06;16.05;;;14.65;;
10725;SDS011;5414;59.782;16.378;2022-08-19T09:30:34;16.70;;;15.15;;
10725;SDS011;5414;59.782;16.378;2022-08-19T09:33:00;16.73;;;15.32;;
10725;SDS011;5414;59.782;16.378;2022-08-19T09:35:27;16.48;;;15.07;;
10725;SDS011;5414;59.782;16.378;2022-08-19T09:37:53;16.95;;;15.35;;
10725;SDS011;5414;59.782;16.378;2022-08-19T09:40:20;15.65;;;14.35;;
10725;SDS011;5414;59.782;16.378;2022-08-19T09:42:46;15.30;;;13.98;;
10725;SDS011;5414;59.782;16.378;2022-08-19T09:45:13;16.10;;;14.70;;
10725;SDS011;5414;59.782;16.378;2022-08-19T09:47:39;15.85;;;14.40;;
10725;SDS011;5414;59.782;16.378;2022-08-19T09:50:07;15.80;;;14.40;;
10725;SDS011;5414;59.782;16.378;2022-08-19T09:52:34;14.88;;;13.68;;
10725;SDS011;5414;59.782;16.378;2022-08-19T09:55:01;15.05;;;13.85;;
10725;SDS011;5414;59.782;16.378;2022-08-19T09:57:27;13.40;;;12.20;;
10725;SDS011;5414;59.782;16.378;2022-08-19T09:59:53;14.27;;;13.07;;
10725;SDS011;5414;59.782;16.378;2022-08-19T10:02:19;14.38;;;13.18;;
10725;SDS011;5414;59.782;16.378;2022-08-19T10:04:46;13.70;;;12.40;;
10725;SDS011;5414;59.782;16.378;2022-08-19T10:07:30;13.40;;;12.10;;
10725;SDS011;5414;59.782;16.378;2022-08-19T10:09:57;13.00;;;11.25;;
10725;SDS011;5414;59.782;16.378;2022-08-19T10:12:23;12.77;;;11.68;;
10725;SDS011;5414;59.782;16.378;2022-08-19T10:14:49;13.07;;;11.80;;
10725;SDS011;5414;59.782;16.378;2022-08-19T10:17:18;14.02;;;12.68;;
10725;SDS011;5414;59.782;16.378;2022-08-19T10:19:45;13.05;;;11.95;;
10725;SDS011;5414;59.782;16.378;2022-08-19T10:22:12;13.85;;;12.57;;
10725;SDS011;5414;59.782;16.378;2022-08-19T10:24:39;12.32;;;11.32;;
10725;SDS011;5414;59.782;16.378;2022-08-19T10:27:06;12.68;;;11.57;;
10725;SDS011;5414;59.782;16.378;2022-08-19T10:29:32;12.65;;;11.55;;
10725;SDS011;5414;59.782;16.378;2022-08-19T10:32:03;12.95;;;11.85;;
10725;SDS011;5414;59.782;16.378;2022-08-19T10:34:30;12.82;;;11.73;;
10725;SDS011;5414;59.782;16.378;2022-08-19T10:36:57;12.57;;;11.48;;
10725;SDS011;5414;59.782;16.378;2022-08-19T10:39:24;12.00;;;11.05;;
10725;SDS011;5414;59.782;16.378;2022-08-19T10:41:50;11.38;;;10.45;;
10725;SDS011;5414;59.782;16.378;2022-08-19T10:44:16;11.60;;;10.50;;
10725;SDS011;5414;59.782;16.378;2022-08-19T10:46:43;12.30;;;11.10;;
10725;SDS011;5414;59.782;16.378;2022-08-19T10:49:12;12.20;;;11.20;;
10725;SDS011;5414;59.782;16.378;2022-08-19T10:51:38;12.40;;;11.20;;
10725;SDS011;5414;59.782;16.378;2022-08-19T10:54:23;11.98;;;10.60;;
10725;SDS011;5414;59.782;16.378;2022-08-19T10:57:09;11.88;;;10.88;;
10725;SDS011;5414;59.782;16.378;2022-08-19T10:59:36;11.90;;;10.80;;
10725;SDS011;5414;59.782;16.378;2022-08-19T11:02:04;11.70;;;10.68;;
10725;SDS011;5414;59.782;16.378;2022-08-19T11:04:30;11.93;;;10.90;;
10725;SDS011;5414;59.782;16.378;2022-08-19T11:06:57;12.48;;;11.25;;
10725;SDS011;5414;59.782;16.378;2022-08-19T11:09:24;12.93;;;11.70;;
10725;SDS011;5414;59.782;16.378;2022-08-19T11:11:51;11.93;;;10.70;;
10725;SDS011;5414;59.782;16.378;2022-08-19T11:14:18;13.05;;;11.85;;
10725;SDS011;5414;59.782;16.378;2022-08-19T11:16:46;12.85;;;11.68;;
10725;SDS011;5414;59.782;16.378;2022-08-19T11:19:14;13.55;;;12.23;;
10725;SDS011;5414;59.782;16.378;2022-08-19T11:21:44;12.57;;;11.68;;
10725;SDS011;5414;59.782;16.378;2022-08-19T11:24:12;12.43;;;11.30;;
10725;SDS011;5414;59.782;16.378;2022-08-19T11:26:40;13.43;;;12.07;;
10725;SDS011;5414;59.782;16.378;2022-08-19T11:29:07;12.80;;;11.70;;
10725;SDS011;5414;59.782;16.378;2022-08-19T11:31:38;12.73;;;11.73;;
10725;SDS011;5414;59.782;16.378;2022-08-19T11:34:06;12.50;;;11.30;;
10725;SDS011;5414;59.782;16.378;2022-08-19T11:36:32;13.20;;;12.15;;
10725;SDS011;5414;59.782;16.378;2022-08-19T11:39:01;11.85;;;10.95;;
10725;SDS011;5414;59.782;16.378;2022-08-19T11:41:27;12.55;;;10.95;;
10725;SDS011;5414;59.782;16.378;2022-08-19T11:43:54;12.05;;;10.88;;
10725;SDS011;5414;59.782;16.378;2022-08-19T11:46:21;12.23;;;11.05;;
10725;SDS011;5414;59.782;16.378;2022-08-19T11:48:48;12.02;;;10.82;;
10725;SDS011;5414;59.782;16.378;2022-08-19T11:51:16;11.60;;;10.55;;
10725;SDS011;5414;59.782;16.378;2022-08-19T11:53:43;11.52;;;10.63;;
10725;SDS011;5414;59.782;16.378;2022-08-19T11:56:10;11.27;;;10.38;;
10725;SDS011;5414;59.782;16.378;2022-08-19T11:58:37;11.65;;;10.75;;
10725;SDS011;5414;59.782;16.378;2022-08-19T12:01:07;11.43;;;10.40;;
10725;SDS011;5414;59.782;16.378;2022-08-19T12:03:33;11.45;;;10.45;;
10725;SDS011;5414;59.782;16.378;2022-08-19T12:06:07;11.63;;;10.63;;
10725;SDS011;5414;59.782;16.378;2022-08-19T12:08:33;10.48;;;9.48;;
10725;SDS011;5414;59.782;16.378;2022-08-19T12:10:59;11.48;;;10.40;;
10725;SDS011;5414;59.782;16.378;2022-08-19T12:13:28;11.25;;;10.25;;
10725;SDS011;5414;59.782;16.378;2022-08-19T12:15:55;10.95;;;9.88;;
10725;SDS011;5414;59.782;16.378;2022-08-19T12:18:21;11.25;;;10.10;;
10725;SDS011;5414;59.782;16.378;2022-08-19T12:20:47;11.02;;;9.93;;
10725;SDS011;5414;59.782;16.378;2022-08-19T12:23:16;10.68;;;9.65;;
10725;SDS011;5414;59.782;16.378;2022-08-19T12:25:47;10.93;;;9.85;;
10725;SDS011;5414;59.782;16.378;2022-08-19T12:28:18;10.35;;;9.45;;
10725;SDS011;5414;59.782;16.378;2022-08-19T12:30:44;9.70;;;8.82;;
10725;SDS011;5414;59.782;16.378;2022-08-19T12:33:10;10.50;;;9.50;;
10725;SDS011;5414;59.782;16.378;2022-08-19T12:35:42;11.15;;;9.43;;
10725;SDS011;5414;59.782;16.378;2022-08-19T12:38:11;9.70;;;8.93;;
10725;SDS011;5414;59.782;16.378;2022-08-19T12:40:37;9.60;;;8.85;;
10725;SDS011;5414;59.782;16.378;2022-08-19T12:43:05;9.57;;;8.77;;
10725;SDS011;5414;59.782;16.378;2022-08-19T12:45:31;10.00;;;9.00;;
10725;SDS011;5414;59.782;16.378;2022-08-19T12:47:57;10.50;;;9.23;;
10725;SDS011;5414;59.782;16.378;2022-08-19T12:50:23;10.07;;;9.07;;
10725;SDS011;5414;59.782;16.378;2022-08-19T12:52:49;8.82;;;8.10;;
10725;SDS011;5414;59.782;16.378;2022-08-19T12:55:15;9.65;;;8.85;;
10725;SDS011;5414;59.782;16.378;2022-08-19T12:57:43;11.13;;;8.52;;
10725;SDS011;5414;59.782;16.378;2022-08-19T13:00:11;10.10;;;9.13;;
10725;SDS011;5414;59.782;16.378;2022-08-19T13:02:39;9.18;;;8.43;;
10725;SDS011;5414;59.782;16.378;2022-08-19T13:05:07;11.20;;;9.13;;
10725;SDS011;5414;59.782;16.378;2022-08-19T13:07:33;9.75;;;8.85;;
10725;SDS011;5414;59.782;16.378;2022-08-19T13:09:59;9.48;;;8.57;;
10725;SDS011;5414;59.782;16.378;2022-08-19T13:12:25;9.40;;;8.70;;
10725;SDS011;5414;59.782;16.378;2022-08-19T13:14:52;10.38;;;9.35;;
10725;SDS011;5414;59.782;16.378;2022-08-19T13:17:19;8.95;;;8.25;;
10725;SDS011;5414;59.782;16.378;2022-08-19T13:19:45;9.13;;;8.43;;
10725;SDS011;5414;59.782;16.378;2022-08-19T13:22:11;10.23;;;9.32;;
10725;SDS011;5414;59.782;16.378;2022-08-19T13:24:38;9.95;;;8.98;;
10725;SDS011;5414;59.782;16.378;2022-08-19T13:27:04;9.60;;;8.60;;
10725;SDS011;5414;59.782;16.378;2022-08-19T13:29:33;10.80;;;8.63;;
10725;SDS011;5414;59.782;16.378;2022-08-19T13:32:17;9.18;;;8.48;;
10725;SDS011;5414;59.782;16.378;2022-08-19T13:35:02;9.15;;;8.30;;
10725;SDS011;5414;59.782;16.378;2022-08-19T13:37:28;9.15;;;8.35;;
10725;SDS011;5414;59.782;16.378;2022-08-19T13:40:08;8.88;;;8.07;;
10725;SDS011;5414;59.782;16.378;2022-08-19T13:42:39;12.07;;;8.85;;
10725;SDS011;5414;59.782;16.378;2022-08-19T13:45:05;9.27;;;8.38;;
10725;SDS011;5414;59.782;16.378;2022-08-19T13:47:32;9.13;;;8.23;;
10725;SDS011;5414;59.782;16.378;2022-08-19T13:50:12;10.13;;;9.30;;
10725;SDS011;5414;59.782;16.378;2022-08-19T13:52:39;9.65;;;8.80;;
10725;SDS011;5414;59.782;16.378;2022-08-19T13:55:06;9.23;;;8.43;;
10725;SDS011;5414;59.782;16.378;2022-08-19T13:57:33;9.55;;;8.55;;
10725;SDS011;5414;59.782;16.378;2022-08-19T13:59:59;9.18;;;8.38;;
10725;SDS011;5414;59.782;16.378;2022-08-19T14:02:25;10.70;;;8.48;;
10725;SDS011;5414;59.782;16.378;2022-08-19T14:04:52;8.73;;;8.02;;
10725;SDS011;5414;59.782;16.378;2022-08-19T14:07:18;9.15;;;8.32;;
10725;SDS011;5414;59.782;16.378;2022-08-19T14:09:46;8.77;;;7.88;;
10725;SDS011;5414;59.782;16.378;2022-08-19T14:12:12;11.23;;;8.68;;
10725;SDS011;5414;59.782;16.378;2022-08-19T14:14:38;8.57;;;7.88;;
10725;SDS011;5414;59.782;16.378;2022-08-19T14:17:08;9.85;;;8.43;;
10725;SDS011;5414;59.782;16.378;2022-08-19T14:19:35;9.07;;;8.18;;
10725;SDS011;5414;59.782;16.378;2022-08-19T14:22:02;9.00;;;8.23;;
10725;SDS011;5414;59.782;16.378;2022-08-19T14:24:30;9.15;;;8.35;;
10725;SDS011;5414;59.782;16.378;2022-08-19T14:26:57;9.40;;;8.45;;
10725;SDS011;5414;59.782;16.378;2022-08-19T14:29:23;9.43;;;8.23;;
10725;SDS011;5414;59.782;16.378;2022-08-19T14:31:49;8.40;;;7.65;;
10725;SDS011;5414;59.782;16.378;2022-08-19T14:34:15;9.98;;;8.40;;
10725;SDS011;5414;59.782;16.378;2022-08-19T14:36:42;8.38;;;7.60;;
10725;SDS011;5414;59.782;16.378;2022-08-19T14:39:10;8.95;;;8.05;;
10725;SDS011;5414;59.782;16.378;2022-08-19T14:41:36;8.15;;;7.43;;